Time;durP1;ratioP1;P1;durP2;ratioP2;P2;SDS_P1;SDS_P2;PMS_P1;PMS_P2;Temp;Humidity;BMP_temperature;BMP_pressure;BME280_temperature;BME280_humidity;BME280_pressure;Samples;Min_cycle;Max_cycle;Signal;HPM_P1;HPM_P2
2021/08/28 00:01:51;;;;;;;6.55;3.20;;;;;;;17.67;64.88;99991.69;5959777;24;20349;-85
2021/08/28 00:04:18;;;;;;;3.83;2.45;;;;;;;17.68;64.96;99991.56;5959195;24;20476;-86
2021/08/28 00:06:45;;;;;;;4.10;2.90;;;;;;;17.69;65.04;99993.25;5984171;24;20028;-87
2021/08/28 00:09:12;;;;;;;4.90;2.90;;;;;;;17.71;65.15;99999.31;5959476;24;20032;-87
2021/08/28 00:11:38;;;;;;;5.15;2.63;;;;;;;17.74;65.19;99992.88;5983858;23;20020;-87
2021/08/28 00:14:05;;;;;;;4.95;2.72;;;;;;;17.75;65.00;99994.56;5983971;23;20024;-87
2021/08/28 00:16:32;;;;;;;4.18;2.90;;;;;;;17.75;65.17;99999.91;5983801;24;20036;-87
2021/08/28 00:18:58;;;;;;;3.50;2.35;;;;;;;17.79;65.27;99997.84;5984087;24;20353;-87
2021/08/28 00:21:25;;;;;;;5.00;2.78;;;;;;;17.81;65.34;99996.75;5984282;24;20020;-88
2021/08/28 00:23:51;;;;;;;4.57;3.08;;;;;;;17.84;65.42;99990.31;5983185;24;20032;-87
2021/08/28 00:26:18;;;;;;;3.88;2.40;;;;;;;17.87;65.39;99997.19;5983813;24;20028;-88
2021/08/28 00:28:45;;;;;;;3.53;2.75;;;;;;;17.89;65.27;100005.88;5959156;24;20084;-89
2021/08/28 00:31:11;;;;;;;5.53;3.03;;;;;;;17.91;65.50;100004.78;5959664;24;20028;-89
2021/08/28 00:33:38;;;;;;;6.82;2.60;;;;;;;17.94;65.34;100009.03;5983387;23;20032;-90
2021/08/28 00:36:04;;;;;;;5.07;3.00;;;;;;;17.96;65.51;100002.59;5983706;23;20487;-87
2021/08/28 00:38:31;;;;;;;6.68;2.80;;;;;;;17.98;65.37;100005.94;5983892;24;20402;-87
2021/08/28 00:40:58;;;;;;;4.45;2.80;;;;;;;18.00;65.44;100000.50;5984070;24;20035;-87
2021/08/28 00:43:28;;;;;;;6.05;3.40;;;;;;;18.02;65.51;99998.53;5983191;23;20024;-91
2021/08/28 00:45:54;;;;;;;7.85;2.80;;;;;;;18.04;65.21;100003.75;5983614;24;20361;-88
2021/08/28 00:48:21;;;;;;;4.82;3.03;;;;;;;18.05;65.52;99997.47;5959315;24;20027;-89
2021/08/28 00:50:48;;;;;;;5.43;3.33;;;;;;;18.06;65.27;100007.13;5983079;24;20469;-86
2021/08/28 00:53:16;;;;;;;5.40;3.50;;;;;;;18.08;65.38;100010.53;5959437;24;20032;-87
2021/08/28 00:55:46;;;;;;;6.75;4.22;;;;;;;18.08;65.42;99998.06;5959193;24;20032;-87
2021/08/28 00:58:12;;;;;;;7.68;3.90;;;;;;;18.10;65.50;100000.59;5983637;23;20032;-87
2021/08/28 01:00:47;;;;;;;7.18;4.38;;;;;;;18.07;66.19;100009.66;5982459;23;20036;-87
2021/08/28 01:03:20;;;;;;;6.15;4.15;;;;;;;18.09;65.50;100013.06;5982251;23;20065;-90
2021/08/28 01:05:55;;;;;;;4.15;3.75;;;;;;;18.09;66.13;100015.72;5983836;24;20051;-90
2021/08/28 01:08:43;;;;;;;6.43;4.28;;;;;;;18.07;66.11;100009.66;5983928;24;20103;-89
2021/08/28 01:11:40;;;;;;;5.22;4.20;;;;;;;18.08;65.80;100010.53;5958557;24;20024;-86
2021/08/28 01:14:09;;;;;;;5.75;4.40;;;;;;;18.13;65.48;100002.16;5983985;24;20088;-86
2021/08/28 01:16:37;;;;;;;9.18;4.60;;;;;;;18.13;65.70;99996.84;5959301;24;20028;-87
2021/08/28 01:19:04;;;;;;;5.53;3.90;;;;;;;18.12;65.50;100000.47;5959093;24;20024;-87
2021/08/28 01:21:37;;;;;;;7.03;4.72;;;;;;;18.08;66.23;99999.88;5958682;24;20474;-86
2021/08/28 01:24:07;;;;;;;11.20;4.82;;;;;;;18.10;65.95;99998.75;5983063;24;20032;-86
2021/08/28 01:26:48;;;;;;;7.60;4.47;;;;;;;18.09;66.13;99994.41;5959979;24;20051;-87
2021/08/28 01:29:18;;;;;;;6.22;4.30;;;;;;;18.13;65.73;99988.84;5958695;24;20743;-88
2021/08/28 01:31:47;;;;;;;5.53;4.32;;;;;;;18.15;65.60;99986.88;5958867;24;20024;-87
2021/08/28 01:34:16;;;;;;;5.65;4.55;;;;;;;18.14;65.55;99986.06;5982389;23;20032;-86
2021/08/28 01:36:45;;;;;;;10.13;5.10;;;;;;;18.14;65.82;99988.72;5983438;24;20031;-87
2021/08/28 01:39:12;;;;;;;7.20;4.55;;;;;;;18.15;65.52;99981.53;5981895;23;20379;-87
2021/08/28 01:41:42;;;;;;;7.45;5.05;;;;;;;18.13;65.73;99981.66;5983600;24;20080;-90
2021/08/28 01:44:12;;;;;;;9.40;4.63;;;;;;;18.14;65.91;99980.72;5983041;24;20031;-86
2021/08/28 01:46:39;;;;;;;6.43;4.68;;;;;;;18.14;65.51;99972.72;5958599;24;20536;-86
2021/08/28 01:49:10;;;;;;;7.80;4.60;;;;;;;18.13;66.02;99980.84;5983455;23;20029;-91
2021/08/28 01:51:38;;;;;;;5.13;4.10;;;;;;;18.13;65.86;99975.53;5981876;24;20021;-90
2021/08/28 01:54:06;;;;;;;5.70;3.80;;;;;;;18.13;65.66;99971.00;5982827;24;20065;-87
2021/08/28 01:56:32;;;;;;;5.25;4.32;;;;;;;18.13;65.60;99971.00;5981870;23;20353;-88
2021/08/28 01:59:00;;;;;;;6.53;4.13;;;;;;;18.14;65.77;99982.53;5958575;24;20028;-88
2021/08/28 02:01:28;;;;;;;6.60;4.65;;;;;;;18.14;65.65;99985.19;5983704;24;20036;-87
2021/08/28 02:03:56;;;;;;;6.55;4.32;;;;;;;18.14;65.84;99987.84;5958583;24;20024;-87
2021/08/28 02:11:30;;;;;;;4.85;3.72;;;;;;;18.10;66.37;99989.94;5820565;24;20026;-86
2021/08/28 02:14:21;;;;;;;;;;;;;;;18.13;65.46;99991.50;5897636;23;20085;-88
2021/08/28 02:16:48;;;;;;;4.95;3.13;;;;;;;18.16;64.99;99985.91;5983195;24;19929;-88
2021/08/28 02:19:22;;;;;;;4.35;3.83;;;;;;;18.11;66.23;99988.97;5958983;24;20047;-88
2021/08/28 02:21:52;;;;;;;5.65;3.53;;;;;;;18.10;65.76;99992.63;5983134;24;20047;-89
2021/08/28 02:24:23;;;;;;;7.18;3.40;;;;;;;18.07;65.94;99977.72;5983096;24;20028;-89
2021/08/28 02:26:57;;;;;;;4.68;3.42;;;;;;;18.06;66.13;99972.50;5982717;24;20088;-90
2021/08/28 02:29:43;;;;;;;4.63;3.47;;;;;;;18.03;66.60;99978.94;5983575;24;20084;-88
2021/08/28 02:32:11;;;;;;;4.80;3.28;;;;;;;18.05;66.17;99979.63;5983077;24;20532;-88
2021/08/28 02:34:39;;;;;;;5.32;2.80;;;;;;;18.07;65.84;99976.84;5983334;24;20065;-90
2021/08/28 02:37:08;;;;;;;5.15;3.05;;;;;;;18.04;65.99;99982.44;5983103;24;20024;-88
2021/08/28 02:39:38;;;;;;;3.83;3.00;;;;;;;18.03;66.48;99970.09;5983085;24;20031;-88
2021/08/28 02:42:06;;;;;;;3.97;2.63;;;;;;;18.02;66.10;99977.22;5983122;24;20031;-87
2021/08/28 02:44:37;;;;;;;2.65;2.35;;;;;;;18.01;66.14;99966.72;5982789;24;20047;-89
2021/08/28 02:47:06;;;;;;;2.50;2.25;;;;;;;17.98;65.97;99968.66;5982654;24;20357;-89
2021/08/28 02:49:34;;;;;;;3.30;1.65;;;;;;;17.97;66.47;99968.78;5983509;23;20012;-88
2021/08/28 02:52:03;;;;;;;1.95;1.75;;;;;;;17.94;66.29;99963.75;5982987;24;20020;-88
2021/08/28 02:54:31;;;;;;;1.77;1.45;;;;;;;17.94;66.29;99966.41;5957633;24;20021;-89
2021/08/28 02:56:59;;;;;;;2.83;1.67;;;;;;;17.94;66.39;99967.25;5982079;24;20469;-90
2021/08/28 02:59:27;;;;;;;1.98;1.58;;;;;;;17.94;66.20;99966.41;5981693;24;20032;-88
2021/08/28 03:01:54;;;;;;;3.97;1.50;;;;;;;17.92;66.52;99963.88;5957995;24;20024;-88
2021/08/28 03:04:24;;;;;;;1.67;1.50;;;;;;;17.91;66.56;99961.34;5980775;23;20028;-90
2021/08/28 03:06:51;;;;;;;3.13;1.38;;;;;;;17.92;66.28;99966.53;5982713;24;20326;-88
2021/08/28 03:09:18;;;;;;;3.33;1.65;;;;;;;17.92;66.52;99958.56;5957692;24;20715;-88
2021/08/28 03:11:45;;;;;;;1.90;1.70;;;;;;;17.92;66.58;99953.22;5958272;24;20047;-90
2021/08/28 03:14:13;;;;;;;2.63;1.85;;;;;;;17.93;66.54;99959.38;5982984;24;20032;-87
2021/08/28 03:16:45;;;;;;;2.20;2.00;;;;;;;17.91;66.86;99954.19;5982912;24;20024;-87
2021/08/28 03:19:14;;;;;;;4.65;2.80;;;;;;;17.92;66.63;99960.34;5983057;24;20032;-90
2021/08/28 03:21:41;;;;;;;2.45;2.25;;;;;;;17.92;66.55;99952.38;5958063;24;20028;-88
2021/08/28 03:24:09;;;;;;;3.45;3.05;;;;;;;17.91;66.55;99951.50;5982261;24;20032;-87
2021/08/28 03:26:45;;;;;;;4.80;3.22;;;;;;;17.91;66.57;99956.84;5984039;24;20020;-87
2021/08/28 03:29:13;;;;;;;4.70;3.17;;;;;;;17.91;66.51;99948.84;5984520;23;20024;-89
2021/08/28 03:31:40;;;;;;;5.47;3.33;;;;;;;17.92;66.80;99944.38;5985059;23;20028;-87
2021/08/28 03:34:08;;;;;;;5.30;3.22;;;;;;;17.92;66.57;99939.06;5984020;23;20024;-88
2021/08/28 03:36:36;;;;;;;5.82;3.35;;;;;;;17.92;66.93;99950.56;5960230;24;20024;-88
2021/08/28 03:39:04;;;;;;;5.30;3.30;;;;;;;17.93;66.67;99940.72;5984691;24;20028;-87
2021/08/28 03:41:30;;;;;;;4.78;3.42;;;;;;;17.94;66.64;99939.78;5984059;24;20084;-88
2021/08/28 03:43:57;;;;;;;5.20;3.08;;;;;;;17.96;66.72;99944.00;5959902;24;20461;-87
2021/08/28 03:46:24;;;;;;;4.13;3.50;;;;;;;17.97;66.82;99936.84;5984326;24;20028;-88
2021/08/28 03:48:51;;;;;;;4.55;3.45;;;;;;;17.97;66.86;99939.50;5984508;24;20410;-89
2021/08/28 03:51:17;;;;;;;4.07;3.63;;;;;;;17.96;66.67;99938.66;5984279;23;20026;-87
2021/08/28 03:53:44;;;;;;;4.57;4.07;;;;;;;17.97;66.63;99934.16;5983745;24;20032;-87
2021/08/28 03:56:10;;;;;;;5.43;3.42;;;;;;;17.97;66.73;99931.50;5959679;24;20035;-87
2021/08/28 03:58:37;;;;;;;5.20;3.90;;;;;;;17.97;66.87;99928.84;5960139;24;20024;-87
2021/08/28 04:01:03;;;;;;;4.85;3.50;;;;;;;17.95;66.79;99931.63;5960059;24;20025;-89
2021/08/28 04:03:31;;;;;;;3.47;3.00;;;;;;;17.95;66.77;99923.66;5984139;23;20028;-88
2021/08/28 04:05:58;;;;;;;3.63;3.22;;;;;;;17.96;66.83;99924.50;5983904;23;20496;-87
2021/08/28 04:08:25;;;;;;;4.45;3.03;;;;;;;17.94;66.95;99921.13;5959707;24;20032;-88
2021/08/28 04:10:51;;;;;;;6.70;3.50;;;;;;;17.93;67.02;99916.75;5960051;24;20024;-89
2021/08/28 04:13:18;;;;;;;4.70;3.22;;;;;;;17.92;67.28;99917.75;5959738;24;20107;-88
2021/08/28 04:15:45;;;;;;;4.45;3.38;;;;;;;17.92;67.23;99920.41;5959743;24;20460;-88
2021/08/28 04:18:11;;;;;;;4.25;3.45;;;;;;;17.91;67.16;99908.06;5960136;24;20044;-88
2021/08/28 04:20:38;;;;;;;8.32;3.55;;;;;;;17.91;67.28;99914.22;5983741;24;20028;-89
2021/08/28 04:23:04;;;;;;;4.70;3.50;;;;;;;17.91;67.24;99916.06;5959979;24;20020;-87
2021/08/28 04:25:31;;;;;;;5.18;3.63;;;;;;;17.89;67.28;99918.84;5958924;24;20032;-87
2021/08/28 04:27:59;;;;;;;7.78;4.20;;;;;;;17.90;67.38;99919.72;5984902;24;20036;-91
2021/08/28 04:30:27;;;;;;;8.60;4.65;;;;;;;17.89;67.44;99916.19;5959806;24;20028;-86
2021/08/28 04:32:55;;;;;;;5.25;3.92;;;;;;;17.89;67.45;99921.53;5984209;24;20127;-88
2021/08/28 04:35:22;;;;;;;6.38;4.38;;;;;;;17.90;67.40;99927.69;5983112;23;20029;-87
2021/08/28 04:37:48;;;;;;;8.55;4.18;;;;;;;17.90;67.29;99919.72;5984074;24;20039;-86
2021/08/28 04:40:15;;;;;;;7.47;4.43;;;;;;;17.90;67.46;99925.88;5983527;24;20469;-88
2021/08/28 04:42:43;;;;;;;7.75;4.50;;;;;;;17.90;67.49;99922.38;5959495;24;20020;-88
2021/08/28 04:45:10;;;;;;;7.25;4.75;;;;;;;17.90;67.23;99933.84;5983885;24;20488;-89
2021/08/28 04:47:36;;;;;;;8.77;4.68;;;;;;;17.90;67.75;99923.19;5959438;24;20031;-90
2021/08/28 04:50:04;;;;;;;5.75;4.63;;;;;;;17.90;67.53;99930.38;5955346;24;20470;-89
2021/08/28 04:52:30;;;;;;;5.35;4.32;;;;;;;17.90;67.63;99936.50;5954755;24;20027;-88
2021/08/28 04:54:57;;;;;;;7.88;4.90;;;;;;;17.92;67.70;99933.72;5955719;24;20036;-89
2021/08/28 04:57:24;;;;;;;11.45;4.90;;;;;;;17.92;67.42;99936.38;5956148;24;20024;-89
2021/08/28 04:59:51;;;;;;;8.15;4.50;;;;;;;17.93;67.30;99943.41;5955206;24;20358;-86
2021/08/28 05:02:17;;;;;;;6.40;4.68;;;;;;;17.95;67.46;99938.81;5954328;24;20024;-87
2021/08/28 05:04:44;;;;;;;6.05;3.97;;;;;;;17.95;67.44;99947.63;5955930;24;20025;-90
2021/08/28 05:07:11;;;;;;;7.43;4.32;;;;;;;17.96;67.42;99951.13;5954724;24;20033;-89
2021/08/28 05:09:37;;;;;;;6.80;3.97;;;;;;;17.95;67.49;99944.13;5956462;24;20040;-91
2021/08/28 05:12:04;;;;;;;7.85;4.43;;;;;;;17.96;67.21;99953.78;5954360;24;20063;-87
2021/08/28 05:14:31;;;;;;;6.30;4.20;;;;;;;17.96;67.49;99952.00;5954929;24;20077;-89
2021/08/28 05:16:57;;;;;;;7.15;4.55;;;;;;;17.96;67.16;99954.66;5954197;24;20493;-89
2021/08/28 05:19:24;;;;;;;5.85;4.47;;;;;;;17.97;67.35;99960.81;5977570;24;20037;-89
2021/08/28 05:21:50;;;;;;;7.20;4.38;;;;;;;17.98;67.25;99962.47;5956182;24;20349;-89
2021/08/28 05:24:17;;;;;;;7.00;4.28;;;;;;;17.98;67.14;99954.50;5955212;23;20473;-87
2021/08/28 05:26:43;;;;;;;6.28;4.50;;;;;;;17.98;67.28;99957.16;5954972;24;20071;-91
2021/08/28 05:29:10;;;;;;;5.97;4.35;;;;;;;17.96;67.31;99957.31;5956101;24;20048;-90
2021/08/28 05:31:37;;;;;;;8.52;4.72;;;;;;;17.97;67.24;99958.13;5954481;24;20077;-88
2021/08/28 05:34:03;;;;;;;6.70;4.65;;;;;;;17.98;67.41;99957.16;5954397;24;20090;-87
2021/08/28 05:36:30;;;;;;;5.60;4.47;;;;;;;17.97;67.37;99959.00;5955904;24;20038;-89
2021/08/28 05:38:57;;;;;;;6.82;4.47;;;;;;;17.99;67.43;99961.53;5955848;24;20024;-87
2021/08/28 05:41:23;;;;;;;10.00;4.25;;;;;;;17.99;67.47;99972.19;5955372;24;20020;-86
2021/08/28 05:43:50;;;;;;;10.57;4.43;;;;;;;18.00;67.44;99965.88;5954896;24;20496;-87
2021/08/28 05:46:16;;;;;;;5.65;4.22;;;;;;;18.00;67.46;99971.22;5953817;24;20024;-87
2021/08/28 05:48:43;;;;;;;8.07;4.70;;;;;;;18.01;67.61;99974.72;5953782;24;20564;-90
2021/08/28 05:51:10;;;;;;;9.73;5.05;;;;;;;18.03;67.64;99970.09;5980343;24;20544;-88
2021/08/28 05:53:36;;;;;;;6.32;4.97;;;;;;;18.04;67.29;99969.97;5983296;24;20032;-87
2021/08/28 05:56:03;;;;;;;6.63;4.82;;;;;;;18.05;67.73;99973.50;5983299;24;20035;-88
2021/08/28 05:58:29;;;;;;;9.73;4.85;;;;;;;18.06;67.64;99978.66;5984127;23;20035;-91
2021/08/28 06:00:56;;;;;;;7.63;5.10;;;;;;;18.07;67.39;99969.72;5959184;24;20032;-87
2021/08/28 06:03:23;;;;;;;9.00;4.85;;;;;;;18.08;67.58;99974.09;5982975;23;20024;-88
2021/08/28 06:05:50;;;;;;;7.80;5.10;;;;;;;18.09;67.44;99978.44;5959008;24;20068;-87
2021/08/28 06:08:17;;;;;;;7.05;5.15;;;;;;;18.10;67.73;99974.78;5958621;24;20092;-86
2021/08/28 06:10:43;;;;;;;6.43;4.63;;;;;;;18.12;67.72;99984.50;5958959;24;20024;-87
2021/08/28 06:13:10;;;;;;;7.40;5.15;;;;;;;18.13;67.59;99991.50;5982897;23;20461;-87
2021/08/28 06:15:37;;;;;;;10.38;5.22;;;;;;;18.15;67.61;99992.19;5982902;23;20028;-86
2021/08/28 06:18:03;;;;;;;8.50;4.53;;;;;;;18.16;67.53;99980.59;5982611;24;20111;-87
2021/08/28 06:20:30;;;;;;;9.35;5.40;;;;;;;18.18;67.58;99978.63;5982938;24;20047;-86
2021/08/28 06:22:57;;;;;;;9.38;5.65;;;;;;;18.18;67.72;99976.81;5958683;24;20021;-88
2021/08/28 06:25:27;;;;;;;7.68;4.97;;;;;;;18.20;67.70;99987.31;5982915;24;20364;-88
2021/08/28 06:27:54;;;;;;;7.32;4.97;;;;;;;18.20;67.78;99988.19;5982556;23;20062;-87
2021/08/28 06:30:21;;;;;;;11.27;5.18;;;;;;;18.22;67.62;99985.38;5958547;24;20032;-89
2021/08/28 06:32:47;;;;;;;7.15;5.10;;;;;;;18.23;67.77;99987.06;5982976;24;20399;-89
2021/08/28 06:35:14;;;;;;;7.20;5.15;;;;;;;18.25;67.68;99992.25;5958490;24;20024;-87
2021/08/28 06:37:41;;;;;;;9.73;5.07;;;;;;;18.26;67.66;99996.63;5982780;24;20035;-88
2021/08/28 06:40:12;;;;;;;8.40;4.97;;;;;;;18.26;67.58;100000.13;5958468;24;20464;-89
2021/08/28 06:42:39;;;;;;;9.75;4.93;;;;;;;18.28;67.48;100000.00;5958139;24;20032;-91
2021/08/28 06:45:07;;;;;;;8.27;5.38;;;;;;;18.29;67.59;100010.53;5982738;24;20024;-87
2021/08/28 06:47:34;;;;;;;6.07;4.47;;;;;;;18.28;67.47;100003.50;5957767;24;20028;-86
2021/08/28 06:50:01;;;;;;;6.40;4.72;;;;;;;18.29;67.67;99997.22;5982170;23;20532;-87
2021/08/28 06:52:27;;;;;;;7.78;5.10;;;;;;;18.29;67.57;100002.53;5982770;24;20031;-87
2021/08/28 06:54:54;;;;;;;5.63;4.32;;;;;;;18.31;67.80;99999.72;5982935;23;20035;-87
2021/08/28 06:57:21;;;;;;;6.47;4.93;;;;;;;18.31;67.69;99999.72;5982605;23;20031;-88
2021/08/28 06:59:47;;;;;;;7.05;5.68;;;;;;;18.33;67.86;99995.97;5983127;24;20080;-87
2021/08/28 07:02:14;;;;;;;6.10;5.05;;;;;;;18.35;68.07;100004.66;5958345;24;20031;-88
2021/08/28 07:04:41;;;;;;;6.50;4.93;;;;;;;18.38;67.89;100008.88;5983115;23;20028;-88
2021/08/28 07:07:10;;;;;;;7.43;5.20;;;;;;;18.41;67.91;100005.97;5958939;24;20369;-89
2021/08/28 07:09:36;;;;;;;6.03;5.20;;;;;;;18.45;67.72;99998.53;5981643;23;20028;-86
2021/08/28 07:12:03;;;;;;;6.57;4.88;;;;;;;18.47;67.77;99999.25;5982703;24;20024;-86
2021/08/28 07:14:30;;;;;;;7.43;5.18;;;;;;;18.51;67.50;100000.69;5983331;24;20730;-87
2021/08/28 07:16:56;;;;;;;7.38;5.00;;;;;;;18.53;67.81;100001.38;5982856;24;20028;-88
2021/08/28 07:19:23;;;;;;;6.22;5.20;;;;;;;18.56;67.56;100008.25;5983264;24;20028;-88
2021/08/28 07:21:50;;;;;;;7.72;5.30;;;;;;;18.58;67.50;100011.66;5983461;23;20035;-88
2021/08/28 07:24:17;;;;;;;11.40;5.57;;;;;;;18.59;67.57;100003.53;5957903;24;20030;-88
2021/08/28 07:26:43;;;;;;;8.90;5.40;;;;;;;18.60;67.49;100007.88;5958670;24;20024;-90
2021/08/28 07:29:10;;;;;;;12.13;4.90;;;;;;;18.64;67.54;100008.44;5983444;24;20036;-87
2021/08/28 07:31:37;;;;;;;5.57;5.00;;;;;;;18.65;67.63;100012.78;5982489;23;20035;-90
2021/08/28 07:34:04;;;;;;;6.35;4.78;;;;;;;18.69;67.69;100008.06;5958288;24;20029;-87
2021/08/28 07:36:31;;;;;;;6.10;4.82;;;;;;;18.71;67.48;100014.94;5982306;24;20476;-89
2021/08/28 07:38:58;;;;;;;5.82;5.20;;;;;;;18.75;67.52;100015.50;5957714;24;20423;-90
2021/08/28 07:41:26;;;;;;;6.72;5.75;;;;;;;18.78;67.49;100017.06;5958949;24;20028;-90
2021/08/28 07:44:03;;;;;;;7.07;4.93;;;;;;;18.83;67.37;100018.34;5957847;24;20032;-91
2021/08/28 07:46:33;;;;;;;7.57;5.32;;;;;;;18.86;67.50;100015.41;5983596;23;20088;-89
2021/08/28 07:49:07;;;;;;;6.32;4.95;;;;;;;18.86;67.42;100015.41;5957972;23;20024;-89
2021/08/28 07:51:37;;;;;;;8.35;5.30;;;;;;;18.91;67.60;100022.16;5981559;24;20036;-89
2021/08/28 07:54:10;;;;;;;6.68;5.20;;;;;;;18.93;67.81;100023.72;5981977;23;20030;-90
2021/08/28 07:56:49;;;;;;;5.75;4.80;;;;;;;18.98;67.97;100024.16;5958962;24;20058;-89
2021/08/28 07:59:23;;;;;;;7.00;5.07;;;;;;;19.05;68.03;100024.47;5959820;24;20028;-89
2021/08/28 08:01:52;;;;;;;6.40;5.23;;;;;;;19.16;67.89;100030.66;5983109;24;20035;-88
2021/08/28 08:04:24;;;;;;;9.00;5.13;;;;;;;19.25;67.70;100033.38;5983352;24;20028;-88
2021/08/28 08:06:54;;;;;;;5.88;5.00;;;;;;;19.32;67.27;100030.16;5983029;23;20103;-90
2021/08/28 08:09:27;;;;;;;7.28;4.85;;;;;;;19.35;67.45;100029.88;5959283;24;20031;-89
2021/08/28 08:11:58;;;;;;;6.63;5.07;;;;;;;19.44;66.58;100037.03;5962161;24;20103;-88
2021/08/28 08:14:30;;;;;;;6.97;5.20;;;;;;;19.45;66.13;100037.91;5984269;23;20024;-89
2021/08/28 08:17:00;;;;;;;5.60;4.93;;;;;;;19.47;65.95;100043.97;5984320;23;20030;-88
2021/08/28 08:19:32;;;;;;;7.30;5.00;;;;;;;19.49;65.76;100041.97;5960996;24;20406;-91
2021/08/28 08:21:58;;;;;;;6.38;5.00;;;;;;;19.47;65.97;100038.63;5984565;24;20024;-90
2021/08/28 08:24:25;;;;;;;5.97;5.10;;;;;;;19.46;65.98;100047.59;5959076;24;20020;-91
2021/08/28 08:26:53;;;;;;;6.50;5.18;;;;;;;19.43;65.78;100054.06;5983845;24;20335;-90
2021/08/28 08:29:19;;;;;;;5.68;5.00;;;;;;;19.39;65.66;100049.97;5959886;24;20025;-87
2021/08/28 08:31:46;;;;;;;6.70;5.28;;;;;;;19.37;65.53;100052.78;5959782;24;20095;-90
2021/08/28 08:34:13;;;;;;;6.18;5.18;;;;;;;19.36;66.38;100047.59;5984239;24;20020;-91
2021/08/28 08:36:40;;;;;;;5.97;5.03;;;;;;;19.36;66.28;100051.09;5960268;24;20032;-90
2021/08/28 08:39:06;;;;;;;6.88;5.32;;;;;;;19.42;66.76;100048.84;5960158;24;20028;-88
2021/08/28 08:41:34;;;;;;;6.75;5.32;;;;;;;19.48;66.96;100056.31;5959904;24;20028;-88
2021/08/28 08:44:01;;;;;;;7.57;5.60;;;;;;;19.58;66.94;100056.34;5959521;24;20496;-87
2021/08/28 08:46:28;;;;;;;9.02;5.65;;;;;;;19.67;66.73;100061.66;5984946;23;20024;-90
2021/08/28 08:48:56;;;;;;;7.55;5.28;;;;;;;19.80;66.60;100049.88;5959575;24;20537;-90
2021/08/28 08:51:23;;;;;;;7.63;5.40;;;;;;;19.92;66.81;100062.09;5961027;24;20024;-88
2021/08/28 08:53:50;;;;;;;6.88;5.30;;;;;;;20.05;66.62;100061.84;5960296;24;20032;-90
2021/08/28 08:56:18;;;;;;;6.78;5.53;;;;;;;20.16;65.88;100068.88;5960143;24;20024;-88
2021/08/28 08:58:45;;;;;;;6.28;5.15;;;;;;;20.26;65.03;100074.19;5984844;24;20028;-89
2021/08/28 09:01:11;;;;;;;6.70;5.05;;;;;;;20.30;64.70;100070.25;5984626;23;20032;-90
2021/08/28 09:03:38;;;;;;;12.00;5.00;;;;;;;20.34;64.33;100067.28;5960311;24;20353;-90
2021/08/28 09:06:05;;;;;;;6.85;4.88;;;;;;;20.34;63.94;100064.63;5984857;23;20035;-90
2021/08/28 09:08:32;;;;;;;7.57;4.80;;;;;;;20.31;64.33;100063.91;5984806;23;20405;-88
2021/08/28 09:10:59;;;;;;;6.45;5.03;;;;;;;20.33;63.96;100073.63;5959787;24;20084;-87
2021/08/28 09:13:32;;;;;;;5.50;4.63;;;;;;;20.33;63.96;100082.47;5960292;24;20031;-88
2021/08/28 09:16:01;;;;;;;6.10;4.50;;;;;;;20.36;64.01;100082.19;5958215;23;20103;-87
2021/08/28 09:18:50;;;;;;;5.30;4.35;;;;;;;20.36;63.50;100076.84;5960262;24;20024;-90
2021/08/28 09:21:16;;;;;;;5.07;4.53;;;;;;;20.47;64.21;100077.66;5958701;24;20028;-89
2021/08/28 09:23:43;;;;;;;5.03;4.45;;;;;;;20.51;63.55;100084.41;5984235;23;20057;-91
2021/08/28 09:26:34;;;;;;;7.63;4.78;;;;;;;20.50;63.49;100085.41;5959501;24;20034;-88
2021/08/28 09:29:04;;;;;;;6.22;4.63;;;;;;;20.56;63.18;100080.31;5959508;24;20024;-90
2021/08/28 09:31:46;;;;;;;5.57;4.40;;;;;;;20.55;62.74;100086.66;5958807;24;20024;-89
2021/08/28 09:34:23;;;;;;;7.03;5.03;;;;;;;20.59;63.15;100089.88;5983054;24;20353;-89
2021/08/28 09:36:52;;;;;;;5.55;5.05;;;;;;;20.57;62.85;100092.69;5960079;24;20087;-91
2021/08/28 09:39:19;;;;;;;10.30;6.50;;;;;;;20.56;62.50;100084.84;5983574;23;20035;-90
2021/08/28 09:41:57;;;;;;;8.20;6.43;;;;;;;20.50;62.13;100085.41;5983620;23;20024;-89
2021/08/28 09:44:43;;;;;;;8.13;6.90;;;;;;;20.46;62.59;100092.88;5959716;24;20476;-88
2021/08/28 09:47:11;;;;;;;8.80;6.55;;;;;;;20.48;62.73;100087.38;5983874;23;20035;-89
2021/08/28 09:49:46;;;;;;;8.05;6.97;;;;;;;20.43;63.37;100090.47;5983327;23;20372;-89
2021/08/28 09:52:31;;;;;;;11.55;7.13;;;;;;;20.45;63.28;100096.53;5958749;24;20357;-90
2021/08/28 09:54:58;;;;;;;9.55;7.53;;;;;;;20.55;63.94;100096.50;5960362;24;20053;-92
2021/08/28 09:57:31;;;;;;;9.10;7.70;;;;;;;20.61;63.97;100095.94;5960270;24;20032;-89
2021/08/28 10:00:00;;;;;;;10.77;8.07;;;;;;;20.75;64.01;100088.44;5983762;24;20051;-90
2021/08/28 10:02:27;;;;;;;9.63;7.80;;;;;;;20.88;63.79;100099.69;5959578;24;20028;-87
2021/08/28 10:04:57;;;;;;;9.65;8.07;;;;;;;21.03;64.15;100097.38;5958609;24;20044;-90
2021/08/28 10:07:23;;;;;;;11.63;7.93;;;;;;;21.20;63.83;100100.25;5984626;23;20039;-90
2021/08/28 10:09:55;;;;;;;9.45;8.15;;;;;;;21.36;63.24;100088.88;5958728;24;20020;-91
2021/08/28 10:12:32;;;;;;;9.52;7.38;;;;;;;21.55;63.23;100092.44;5960454;24;20051;-90
2021/08/28 10:15:07;;;;;;;8.20;6.82;;;;;;;21.71;61.94;100087.25;5960381;24;20028;-88
2021/08/28 10:17:42;;;;;;;8.10;7.05;;;;;;;21.89;61.42;100094.47;5984018;24;20046;-90
2021/08/28 10:20:15;;;;;;;9.13;6.85;;;;;;;22.03;60.83;100097.59;5959282;24;20028;-90
2021/08/28 10:22:50;;;;;;;6.65;5.93;;;;;;;22.16;61.12;100092.69;5984666;24;20020;-90
2021/08/28 10:25:20;;;;;;;8.00;6.45;;;;;;;22.30;61.17;100102.03;5959513;24;20084;-91
2021/08/28 10:28:12;;;;;;;6.55;5.15;;;;;;;22.43;60.47;100090.03;5963909;24;20031;-88
2021/08/28 10:30:39;;;;;;;7.22;4.70;;;;;;;22.49;59.58;100092.09;5984090;24;20024;-90
2021/08/28 10:33:10;;;;;;;6.38;4.78;;;;;;;22.48;58.59;100093.94;5958690;24;20077;-90
2021/08/28 10:35:37;;;;;;;5.00;4.40;;;;;;;22.49;59.00;100097.44;5958865;24;20044;-91
2021/08/28 10:38:12;;;;;;;5.10;4.07;;;;;;;22.47;58.38;100096.78;5960576;24;20360;-91
2021/08/28 10:40:42;;;;;;;6.30;3.95;;;;;;;22.43;58.19;100106.13;5960196;24;20136;-91
2021/08/28 10:43:17;;;;;;;4.47;3.60;;;;;;;22.35;57.92;100104.25;5985056;24;20491;-92
2021/08/28 10:46:06;;;;;;;4.80;4.07;;;;;;;22.29;58.40;100111.06;5985428;24;20540;-90
2021/08/28 10:48:56;;;;;;;4.95;4.05;;;;;;;22.16;58.29;100110.63;5984778;24;20361;-88
2021/08/28 10:51:37;;;;;;;6.72;4.25;;;;;;;22.08;58.46;100106.88;5907831;24;20104;-90
2021/08/28 10:54:07;;;;;;;5.05;4.40;;;;;;;22.00;58.75;100112.16;5955772;24;20035;-87
2021/08/28 10:56:35;;;;;;;4.57;4.07;;;;;;;21.91;59.11;100110.41;5931583;24;20032;-91
2021/08/28 10:59:23;;;;;;;5.70;3.90;;;;;;;21.78;59.59;100110.75;5955211;24;20024;-91
2021/08/28 11:02:18;;;;;;;5.20;3.92;;;;;;;21.72;60.17;100106.84;5931696;24;20024;-90
2021/08/28 11:04:47;;;;;;;5.35;3.88;;;;;;;21.74;60.26;100107.56;5930920;24;20081;-86
2021/08/28 11:07:27;;;;;;;5.40;4.13;;;;;;;21.71;61.03;100102.47;5956128;24;20024;-90
2021/08/28 11:10:16;;;;;;;6.28;4.03;;;;;;;21.79;62.25;100110.63;5955225;24;20487;-88
2021/08/28 11:12:44;;;;;;;3.90;3.40;;;;;;;22.00;62.27;100102.28;5930905;24;20109;-89
2021/08/28 11:15:33;;;;;;;4.82;4.03;;;;;;;22.19;61.83;100104.94;5955365;24;20039;-92
2021/08/28 11:18:02;;;;;;;3.72;3.28;;;;;;;22.41;61.32;100100.94;5934415;24;20025;-92
2021/08/28 11:20:35;;;;;;;4.13;3.67;;;;;;;22.59;60.35;100102.75;5936656;24;20028;-92
2021/08/28 11:23:04;;;;;;;4.07;3.53;;;;;;;22.74;60.54;100097.66;5933649;24;20024;-88
2021/08/28 11:25:46;;;;;;;3.22;2.72;;;;;;;22.88;60.69;100102.41;5956331;24;20057;-91
2021/08/28 11:28:14;;;;;;;4.47;3.20;;;;;;;23.04;60.19;100098.13;5910953;24;20029;-90
2021/08/28 11:30:45;;;;;;;3.92;3.00;;;;;;;23.19;58.89;100094.81;5931004;24;20035;-89
2021/08/28 11:33:29;;;;;;;3.78;2.95;;;;;;;23.32;59.24;100099.75;5954620;24;20021;-86
2021/08/28 11:36:04;;;;;;;2.55;2.35;;;;;;;23.50;58.60;100097.81;5930841;24;20025;-85
2021/08/28 11:38:56;;;;;;;3.08;2.75;;;;;;;23.62;57.40;100094.81;5954844;24;20035;-88
2021/08/28 11:41:25;;;;;;;2.20;2.10;;;;;;;23.71;56.76;100099.19;5933500;24;20032;-93
2021/08/28 11:43:54;;;;;;;2.25;1.88;;;;;;;23.65;56.40;100103.38;5957752;24;20032;-93
2021/08/28 11:46:26;;;;;;;1.70;1.60;;;;;;;23.52;55.75;100100.34;5934106;24;20029;-90